createdAt,value
2022-08-14T00:00:20.712Z,56.80
2022-08-14T00:02:27.347Z,56.90
2022-08-14T00:04:42.399Z,56.70
2022-08-14T00:06:48.956Z,56.50
2022-08-14T00:08:53.486Z,56.50
2022-08-14T00:10:58.971Z,56.50
2022-08-14T00:13:05.054Z,57.30
2022-08-14T00:15:15.388Z,57.40
2022-08-14T00:17:19.125Z,57.20
2022-08-14T00:19:25.045Z,57.30
2022-08-14T00:21:31.310Z,57.40
2022-08-14T00:23:34.790Z,57.40
2022-08-14T00:25:42.417Z,57.70
2022-08-14T00:27:49.165Z,58.10
2022-08-14T00:29:57.405Z,58.00
2022-08-14T00:32:00.988Z,58.40
2022-08-14T00:34:37.896Z,58.20
2022-08-14T00:36:49.752Z,58.50
2022-08-14T00:38:53.358Z,58.90
2022-08-14T00:40:57.290Z,58.80
2022-08-14T00:43:04.361Z,58.70
2022-08-14T00:45:12.121Z,58.80
2022-08-14T00:47:18.712Z,59.20
2022-08-14T00:49:22.171Z,59.60
2022-08-14T00:51:38.050Z,59.80
2022-08-14T00:53:43.093Z,59.70
2022-08-14T00:55:50.338Z,60.70
2022-08-14T00:57:54.643Z,60.70
2022-08-14T01:00:00.507Z,60.50
2022-08-14T01:02:04.373Z,60.60
2022-08-14T01:04:51.618Z,60.60
2022-08-14T01:06:46.390Z,60.90
2022-08-14T01:08:52.301Z,61.10
2022-08-14T01:11:04.306Z,61.50
2022-08-14T01:13:07.302Z,61.50
2022-08-14T01:15:14.777Z,61.40
2022-08-14T01:17:18.301Z,62.10
2022-08-14T01:19:25.765Z,61.80
2022-08-14T01:21:34.621Z,61.50
2022-08-14T01:23:46.901Z,61.30
2022-08-14T01:25:52.254Z,61.20
2022-08-14T01:27:57.096Z,60.90
2022-08-14T01:30:04.041Z,61.30
2022-08-14T01:32:10.495Z,61.80
2022-08-14T01:35:18.573Z,61.70
2022-08-14T01:36:39.397Z,61.90
2022-08-14T01:38:45.486Z,61.80
2022-08-14T01:40:53.570Z,61.90
2022-08-14T01:42:57.491Z,62.30
2022-08-14T01:45:02.134Z,62.40
2022-08-14T01:47:09.072Z,62.60
2022-08-14T01:49:16.006Z,62.50
2022-08-14T01:51:22.183Z,62.30
2022-08-14T01:53:31.559Z,62.30
2022-08-14T01:55:40.196Z,62.10
2022-08-14T01:58:01.884Z,61.90
2022-08-14T02:00:12.140Z,61.90
2022-08-14T02:02:20.693Z,62.20
2022-08-14T02:04:54.731Z,62.50
2022-08-14T02:06:58.870Z,62.50
2022-08-14T02:09:18.950Z,63.00
2022-08-14T02:11:24.315Z,63.50
2022-08-14T02:13:28.041Z,63.40
2022-08-14T02:15:34.417Z,63.00
2022-08-14T02:17:38.389Z,63.00
2022-08-14T02:19:42.465Z,63.50
2022-08-14T02:21:56.752Z,63.10
2022-08-14T02:24:40.405Z,63.50
2022-08-14T02:26:34.978Z,63.40
2022-08-14T02:29:03.228Z,63.50
2022-08-14T02:31:08.805Z,64.00
2022-08-14T02:33:13.231Z,64.00
2022-08-14T02:35:17.736Z,64.00
2022-08-14T02:37:20.850Z,64.20
2022-08-14T02:39:26.438Z,64.10
2022-08-14T02:41:36.646Z,64.20
2022-08-14T02:43:46.410Z,64.30
2022-08-14T02:45:52.178Z,64.50
2022-08-14T02:47:57.378Z,64.60
2022-08-14T02:50:00.892Z,64.70
2022-08-14T02:52:16.058Z,64.70
2022-08-14T02:54:32.028Z,64.60
2022-08-14T02:57:15.753Z,64.40
2022-08-14T02:59:00.382Z,64.20
2022-08-14T03:01:04.448Z,64.50
2022-08-14T03:03:10.018Z,64.60
2022-08-14T03:05:21.051Z,64.70
2022-08-14T03:07:24.070Z,64.60
2022-08-14T03:09:41.977Z,64.80
2022-08-14T03:11:54.703Z,64.90
2022-08-14T03:13:59.551Z,64.80
2022-08-14T03:16:08.883Z,64.50
2022-08-14T03:18:14.029Z,64.60
2022-08-14T03:20:22.302Z,64.40
2022-08-14T03:22:36.995Z,64.10
2022-08-14T03:24:42.817Z,64.10
2022-08-14T03:26:47.356Z,64.20
2022-08-14T03:28:52.640Z,64.00
2022-08-14T03:30:56.532Z,64.00
2022-08-14T03:33:03.120Z,64.00
2022-08-14T03:35:08.698Z,64.40
2022-08-14T03:37:37.937Z,64.60
2022-08-14T03:39:35.785Z,64.40
2022-08-14T03:41:47.909Z,64.20
2022-08-14T03:44:01.110Z,64.20
2022-08-14T03:46:10.188Z,64.00
2022-08-14T03:48:31.232Z,63.80
2022-08-14T03:50:34.715Z,63.80
2022-08-14T03:52:41.077Z,63.50
2022-08-14T03:54:52.470Z,63.40
2022-08-14T03:56:58.229Z,63.80
2022-08-14T03:59:05.073Z,63.80
2022-08-14T04:01:16.997Z,64.00
2022-08-14T04:03:24.037Z,63.70
2022-08-14T04:05:43.128Z,64.00
2022-08-14T04:08:08.417Z,64.00
2022-08-14T04:10:14.621Z,64.00
2022-08-14T04:12:26.120Z,64.20
2022-08-14T04:14:29.753Z,64.30
2022-08-14T04:16:33.323Z,64.70
2022-08-14T04:18:39.601Z,64.50
2022-08-14T04:20:54.315Z,64.60
2022-08-14T04:22:57.772Z,64.90
2022-08-14T04:25:05.122Z,64.90
2022-08-14T04:27:09.760Z,65.10
2022-08-14T04:29:16.090Z,64.70
2022-08-14T04:31:25.076Z,64.90
2022-08-14T04:33:47.016Z,65.50
2022-08-14T04:35:56.367Z,65.90
2022-08-14T04:37:59.978Z,66.20
2022-08-14T04:40:03.579Z,66.20
2022-08-14T04:42:14.045Z,66.10
2022-08-14T04:44:36.331Z,66.00
2022-08-14T04:46:56.188Z,66.00
2022-08-14T04:48:51.360Z,66.00
2022-08-14T04:50:58.473Z,66.30
2022-08-14T04:53:01.951Z,66.10
2022-08-14T04:55:05.392Z,66.50
2022-08-14T04:57:07.937Z,66.20
2022-08-14T04:59:13.491Z,66.10
2022-08-14T05:01:19.716Z,66.40
2022-08-14T05:03:27.089Z,66.70
2022-08-14T05:05:39.348Z,66.70
2022-08-14T05:07:53.841Z,66.80
2022-08-14T05:09:57.508Z,66.70
2022-08-14T05:13:11.886Z,66.80
2022-08-14T05:14:46.817Z,66.60
2022-08-14T05:16:47.394Z,66.60
2022-08-14T05:19:18.319Z,67.00
2022-08-14T05:22:00.013Z,66.60
2022-08-14T05:23:39.873Z,66.10
2022-08-14T05:25:45.663Z,66.30
2022-08-14T05:27:48.808Z,66.20
2022-08-14T05:29:53.328Z,66.20
2022-08-14T05:31:58.241Z,66.30
2022-08-14T05:34:00.670Z,66.80
2022-08-14T05:36:07.087Z,66.70
2022-08-14T05:38:22.229Z,66.70
2022-08-14T05:40:33.414Z,66.50
2022-08-14T05:42:35.662Z,66.20
2022-08-14T05:44:38.166Z,66.00
2022-08-14T05:46:40.346Z,65.80
2022-08-14T05:48:43.405Z,65.90
2022-08-14T05:50:46.488Z,65.80
2022-08-14T05:52:40.230Z,65.70
2022-08-14T05:54:43.213Z,65.50
2022-08-14T05:56:47.441Z,65.40
2022-08-14T05:58:51.634Z,65.70
2022-08-14T06:00:54.359Z,65.50
2022-08-14T06:02:57.422Z,65.50
2022-08-14T06:05:09.798Z,65.40
2022-08-14T06:07:14.565Z,65.70
2022-08-14T06:09:17.298Z,65.70
2022-08-14T06:11:27.883Z,65.50
2022-08-14T06:13:45.456Z,65.30
2022-08-14T06:15:50.341Z,65.30
2022-08-14T06:17:58.580Z,65.20
2022-08-14T06:20:01.306Z,65.20
2022-08-14T06:22:06.041Z,65.30
2022-08-14T06:24:18.879Z,65.20
2022-08-14T06:26:22.495Z,65.30
2022-08-14T06:28:28.370Z,65.20
2022-08-14T06:30:46.367Z,65.20
2022-08-14T06:32:52.276Z,65.00
2022-08-14T06:35:03.291Z,64.90
2022-08-14T06:37:16.870Z,64.70
2022-08-14T06:39:36.101Z,64.30
2022-08-14T06:41:57.571Z,64.10
2022-08-14T06:44:00.944Z,63.70
2022-08-14T06:46:04.482Z,63.60
2022-08-14T06:48:18.270Z,63.50
2022-08-14T06:50:27.663Z,63.50
2022-08-14T06:52:32.749Z,62.90
2022-08-14T06:54:35.231Z,63.30
2022-08-14T06:56:38.153Z,62.90
2022-08-14T06:58:41.875Z,62.80
2022-08-14T07:00:46.628Z,62.60
2022-08-14T07:02:52.796Z,62.30
2022-08-14T07:05:06.128Z,62.30
2022-08-14T07:07:08.726Z,62.00
2022-08-14T07:09:16.846Z,61.60
2022-08-14T07:11:25.313Z,61.70
2022-08-14T07:13:30.644Z,61.40
2022-08-14T07:15:39.778Z,61.40
2022-08-14T07:17:46.453Z,61.50
2022-08-14T07:19:55.500Z,61.60
2022-08-14T07:21:59.405Z,61.60
2022-08-14T07:24:09.707Z,61.70
2022-08-14T07:26:30.893Z,61.80
2022-08-14T07:28:42.167Z,61.70
2022-08-14T07:30:50.670Z,61.30
2022-08-14T07:32:42.929Z,61.30
2022-08-14T07:34:49.275Z,61.00
2022-08-14T07:36:58.038Z,61.00
2022-08-14T07:39:02.995Z,60.60
2022-08-14T07:41:16.546Z,60.70
2022-08-14T07:43:21.339Z,59.80
2022-08-14T07:45:23.556Z,59.90
2022-08-14T07:47:27.008Z,60.30
2022-08-14T07:49:31.629Z,60.40
2022-08-14T07:51:37.174Z,60.20
2022-08-14T07:53:40.978Z,60.30
2022-08-14T07:55:46.056Z,59.70
2022-08-14T07:58:05.938Z,60.30
2022-08-14T08:00:31.060Z,60.20
2022-08-14T08:02:38.482Z,59.00
2022-08-14T08:04:54.490Z,59.20
2022-08-14T08:07:00.397Z,58.70
2022-08-14T08:09:04.655Z,58.90
2022-08-14T08:11:14.690Z,58.30
2022-08-14T08:13:24.145Z,58.50
2022-08-14T08:15:31.842Z,59.60
2022-08-14T08:17:42.323Z,59.40
2022-08-14T08:19:56.229Z,58.70
2022-08-14T08:22:01.943Z,58.20
2022-08-14T08:24:05.782Z,58.40
2022-08-14T08:26:08.917Z,58.10
2022-08-14T08:28:21.751Z,58.20
2022-08-14T08:30:33.214Z,58.10
2022-08-14T08:32:44.173Z,58.40
2022-08-14T08:34:49.592Z,58.50
2022-08-14T08:36:52.739Z,59.40
2022-08-14T08:39:18.739Z,58.70
2022-08-14T08:41:23.842Z,58.00
2022-08-14T08:43:36.179Z,58.00
2022-08-14T08:45:57.287Z,58.00
2022-08-14T08:48:18.172Z,57.40
2022-08-14T08:50:31.641Z,57.40
2022-08-14T08:52:35.170Z,57.60
2022-08-14T08:54:41.269Z,57.20
2022-08-14T08:56:48.342Z,56.60
2022-08-14T08:58:52.693Z,57.50
2022-08-14T09:01:01.409Z,57.10
2022-08-14T09:03:11.135Z,56.90
2022-08-14T09:05:22.864Z,56.40
2022-08-14T09:07:27.158Z,55.80
2022-08-14T09:09:33.981Z,55.60
2022-08-14T09:12:00.755Z,55.00
2022-08-14T09:14:04.350Z,54.90
2022-08-14T09:16:19.054Z,56.30
2022-08-14T09:18:24.585Z,55.90
2022-08-14T09:20:30.778Z,55.50
2022-08-14T09:22:42.507Z,55.00
2022-08-14T09:24:54.645Z,55.60
2022-08-14T09:26:59.164Z,54.90
2022-08-14T09:29:03.563Z,54.20
2022-08-14T09:31:17.448Z,54.30
2022-08-14T09:33:56.396Z,54.20
2022-08-14T09:37:00.251Z,54.50
2022-08-14T09:39:23.101Z,54.10
2022-08-14T09:42:17.360Z,54.00
2022-08-14T09:44:20.937Z,53.10
2022-08-14T09:46:25.708Z,52.40
2022-08-14T09:48:30.987Z,52.80
2022-08-14T09:50:47.532Z,53.30
2022-08-14T09:52:57.631Z,53.50
2022-08-14T09:55:16.224Z,52.20
2022-08-14T09:57:29.173Z,51.20
2022-08-14T09:59:41.906Z,52.50
2022-08-14T10:01:57.838Z,51.50
2022-08-14T10:04:35.824Z,52.30
2022-08-14T10:06:45.161Z,52.60
2022-08-14T10:08:51.711Z,53.20
2022-08-14T10:11:02.508Z,53.00
2022-08-14T10:13:20.113Z,52.70
2022-08-14T10:15:30.067Z,52.70
2022-08-14T10:17:38.840Z,52.40
2022-08-14T10:19:48.898Z,52.20
2022-08-14T10:23:22.316Z,51.60
2022-08-14T10:24:36.401Z,50.60
2022-08-14T10:26:39.986Z,50.50
2022-08-14T10:29:18.906Z,49.20
2022-08-14T10:31:25.779Z,48.40
2022-08-14T10:33:34.466Z,48.40
2022-08-14T10:35:47.837Z,48.00
2022-08-14T10:37:52.609Z,48.40
2022-08-14T10:40:10.740Z,48.40
2022-08-14T10:42:36.046Z,49.10
2022-08-14T10:44:45.779Z,49.00
2022-08-14T10:47:40.473Z,47.90
2022-08-14T10:49:21.649Z,46.30
2022-08-14T10:51:29.920Z,47.30
2022-08-14T10:53:36.072Z,47.20
2022-08-14T10:55:45.600Z,47.90
2022-08-14T10:57:51.992Z,48.00
2022-08-14T10:59:57.875Z,48.20
2022-08-14T11:02:15.458Z,47.40
2022-08-14T11:04:30.181Z,47.70
2022-08-14T11:06:53.119Z,48.00
2022-08-14T11:08:57.042Z,48.30
2022-08-14T11:11:05.297Z,47.40
2022-08-14T11:13:08.821Z,47.20
2022-08-14T11:15:12.840Z,47.70
2022-08-14T11:17:21.597Z,47.80
2022-08-14T11:19:25.380Z,47.10
2022-08-14T11:21:34.254Z,46.90
2022-08-14T11:23:41.262Z,47.00
2022-08-14T11:25:53.370Z,46.10
2022-08-14T11:27:59.885Z,45.30
2022-08-14T11:30:50.009Z,45.20
2022-08-14T11:32:30.447Z,46.40
2022-08-14T11:34:37.171Z,45.70
2022-08-14T11:37:02.239Z,46.20
2022-08-14T11:39:03.831Z,45.00
2022-08-14T11:41:17.308Z,44.60
2022-08-14T11:43:29.018Z,42.60
2022-08-14T11:45:37.082Z,42.00
2022-08-14T11:47:43.655Z,43.20
2022-08-14T11:49:48.315Z,44.90
2022-08-14T11:51:56.247Z,44.50
2022-08-14T11:54:05.922Z,42.80
2022-08-14T11:56:12.986Z,42.20
2022-08-14T11:58:23.794Z,41.80
2022-08-14T12:00:33.547Z,41.00
2022-08-14T12:03:03.174Z,39.70
2022-08-14T12:05:32.909Z,40.40
2022-08-14T12:07:50.327Z,39.20
2022-08-14T12:09:56.942Z,40.10
2022-08-14T12:12:01.251Z,39.20
2022-08-14T12:14:08.555Z,38.40
2022-08-14T12:16:31.615Z,37.40
2022-08-14T12:18:36.393Z,38.60
2022-08-14T12:20:45.892Z,38.40
2022-08-14T12:22:59.872Z,37.20
2022-08-14T12:25:11.363Z,37.00
2022-08-14T12:27:16.997Z,37.10
2022-08-14T12:29:22.056Z,36.80
2022-08-14T12:31:24.952Z,35.70
2022-08-14T12:33:33.233Z,35.80
2022-08-14T12:35:43.219Z,36.00
2022-08-14T12:37:48.986Z,36.00
2022-08-14T12:39:55.116Z,35.60
2022-08-14T12:42:04.293Z,34.70
2022-08-14T12:44:09.235Z,34.80
2022-08-14T12:46:27.237Z,33.90
2022-08-14T12:48:43.899Z,34.00
2022-08-14T12:50:54.810Z,33.10
2022-08-14T12:53:13.908Z,32.40
2022-08-14T12:55:22.136Z,31.60
2022-08-14T12:57:39.122Z,32.40
2022-08-14T12:59:44.791Z,32.00
2022-08-14T13:02:03.096Z,34.80
2022-08-14T13:04:18.800Z,32.70
2022-08-14T13:06:29.706Z,34.60
2022-08-14T13:08:33.848Z,33.70
2022-08-14T13:10:47.459Z,33.20
2022-08-14T13:13:13.198Z,31.70
2022-08-14T13:15:19.622Z,33.20
2022-08-14T13:17:23.950Z,32.40
2022-08-14T13:19:30.526Z,33.60
2022-08-14T13:21:58.558Z,34.60
2022-08-14T13:24:04.864Z,34.10
2022-08-14T13:26:13.399Z,33.30
2022-08-14T13:28:16.828Z,33.60
2022-08-14T13:30:38.575Z,33.10
2022-08-14T13:32:43.229Z,33.20
2022-08-14T13:34:48.946Z,33.20
2022-08-14T13:37:03.615Z,33.70
2022-08-14T13:39:10.545Z,33.50
2022-08-14T13:41:18.329Z,33.10
2022-08-14T13:43:23.783Z,32.70
2022-08-14T13:45:33.808Z,33.20
2022-08-14T13:47:50.844Z,33.70
2022-08-14T13:49:58.445Z,33.50
2022-08-14T13:52:48.335Z,34.20
2022-08-14T13:54:30.968Z,35.10
2022-08-14T13:56:40.705Z,35.50
2022-08-14T13:58:50.416Z,35.80
2022-08-14T14:00:55.438Z,35.50
2022-08-14T14:03:04.603Z,35.70
2022-08-14T14:05:19.690Z,35.60
2022-08-14T14:07:31.924Z,35.20
2022-08-14T14:09:51.221Z,36.40
2022-08-14T14:12:04.051Z,36.30
2022-08-14T14:14:09.981Z,35.90
2022-08-14T14:16:32.751Z,37.10
2022-08-14T14:18:36.835Z,36.00
2022-08-14T14:20:45.737Z,36.90
2022-08-14T14:23:02.741Z,36.10
2022-08-14T14:25:10.754Z,36.20
2022-08-14T14:27:39.472Z,36.50
2022-08-14T14:29:47.472Z,36.20
2022-08-14T14:31:59.854Z,35.90
2022-08-14T14:34:20.179Z,35.80
2022-08-14T14:36:31.554Z,35.90
2022-08-14T14:38:39.958Z,36.30
2022-08-14T14:40:54.697Z,36.20
2022-08-14T14:43:12.307Z,36.20
2022-08-14T14:45:19.985Z,35.90
2022-08-14T14:47:25.153Z,36.10
2022-08-14T14:49:51.412Z,36.10
2022-08-14T14:51:56.677Z,36.10
2022-08-14T14:54:01.284Z,36.00
2022-08-14T14:56:50.721Z,36.00
2022-08-14T14:58:31.764Z,36.30
2022-08-14T15:00:37.337Z,36.10
2022-08-14T15:02:45.288Z,35.50
2022-08-14T15:05:03.760Z,36.10
2022-08-14T15:07:07.757Z,35.90
2022-08-14T15:09:11.192Z,35.90
2022-08-14T15:11:22.122Z,36.80
2022-08-14T15:13:27.604Z,36.70
2022-08-14T15:15:39.715Z,37.20
2022-08-14T15:17:44.007Z,36.70
2022-08-14T15:19:56.747Z,36.60
2022-08-14T15:22:02.661Z,36.00
2022-08-14T15:24:07.659Z,36.70
2022-08-14T15:26:23.704Z,36.70
2022-08-14T15:28:38.851Z,36.40
2022-08-14T15:30:50.986Z,36.20
2022-08-14T15:33:01.817Z,36.50
2022-08-14T15:35:07.841Z,36.00
2022-08-14T15:37:13.056Z,35.60
2022-08-14T15:39:20.277Z,36.00
2022-08-14T15:41:26.705Z,36.90
2022-08-14T15:43:39.802Z,36.10
2022-08-14T15:45:33.135Z,36.10
2022-08-14T15:47:41.644Z,36.00
2022-08-14T15:49:48.537Z,36.40
2022-08-14T15:51:59.916Z,37.20
2022-08-14T15:54:04.067Z,37.80
2022-08-14T15:56:32.778Z,37.80
2022-08-14T15:58:40.740Z,37.00
2022-08-14T16:00:49.416Z,37.20
2022-08-14T16:02:55.143Z,36.90
2022-08-14T16:05:07.281Z,38.40
2022-08-14T16:07:15.101Z,37.50
2022-08-14T16:09:19.043Z,37.70
2022-08-14T16:11:28.713Z,38.10
2022-08-14T16:13:41.329Z,37.50
2022-08-14T16:15:53.115Z,37.30
2022-08-14T16:18:01.782Z,37.50
2022-08-14T16:20:10.052Z,37.50
2022-08-14T16:22:57.160Z,36.80
2022-08-14T16:25:02.442Z,37.10
2022-08-14T16:27:11.077Z,37.00
2022-08-14T16:29:16.200Z,37.20
2022-08-14T16:31:24.581Z,37.80
2022-08-14T16:33:59.939Z,38.10
2022-08-14T16:36:29.883Z,38.30
2022-08-14T16:38:46.223Z,38.20
2022-08-14T16:40:53.611Z,38.60
2022-08-14T16:43:04.447Z,38.70
2022-08-14T16:45:17.739Z,38.70
2022-08-14T16:47:22.838Z,39.10
2022-08-14T16:50:02.559Z,39.10
2022-08-14T16:51:54.493Z,39.20
2022-08-14T16:54:20.789Z,39.50
2022-08-14T16:56:36.285Z,39.10
2022-08-14T16:58:41.595Z,39.60
2022-08-14T17:00:46.430Z,39.80
2022-08-14T17:03:01.292Z,39.50
2022-08-14T17:05:23.997Z,39.40
2022-08-14T17:07:29.485Z,39.50
2022-08-14T17:09:43.312Z,39.30
2022-08-14T17:11:57.881Z,39.80
2022-08-14T17:14:05.730Z,39.50
2022-08-14T17:16:25.048Z,39.70
2022-08-14T17:18:41.841Z,39.20
2022-08-14T17:21:00.589Z,39.60
2022-08-14T17:23:10.833Z,39.40
2022-08-14T17:25:15.469Z,39.80
2022-08-14T17:27:22.085Z,39.90
2022-08-14T17:29:29.404Z,39.80
2022-08-14T17:31:57.946Z,40.40
2022-08-14T17:33:59.817Z,40.40
2022-08-14T17:36:20.946Z,40.90
2022-08-14T17:38:38.989Z,40.80
2022-08-14T17:40:44.615Z,40.70
2022-08-14T17:43:02.117Z,40.50
2022-08-14T17:45:06.337Z,40.90
2022-08-14T17:47:09.427Z,41.60
2022-08-14T17:49:18.622Z,42.10
2022-08-14T17:51:30.237Z,42.50
2022-08-14T17:53:35.466Z,42.90
2022-08-14T17:56:03.465Z,43.40
2022-08-14T17:58:20.708Z,43.80
2022-08-14T18:00:26.329Z,44.30
2022-08-14T18:02:30.977Z,44.20
2022-08-14T18:04:44.158Z,44.50
2022-08-14T18:06:58.554Z,44.80
2022-08-14T18:09:25.313Z,45.00
2022-08-14T18:11:45.789Z,45.30
2022-08-14T18:13:54.165Z,45.40
2022-08-14T18:16:01.366Z,45.90
2022-08-14T18:18:09.196Z,46.00
2022-08-14T18:21:24.222Z,46.20
2022-08-14T18:22:39.477Z,46.70
2022-08-14T18:24:47.133Z,46.60
2022-08-14T18:27:01.589Z,46.60
2022-08-14T18:29:14.705Z,46.70
2022-08-14T18:31:42.362Z,46.50
2022-08-14T18:33:54.815Z,46.70
2022-08-14T18:36:47.535Z,46.40
2022-08-14T18:38:45.852Z,47.00
2022-08-14T18:41:37.092Z,46.30
2022-08-14T18:43:45.943Z,46.60
2022-08-14T18:46:03.401Z,46.20
2022-08-14T18:48:51.003Z,47.00
2022-08-14T18:50:58.969Z,46.50
2022-08-14T18:53:10.997Z,46.70
2022-08-14T18:55:53.315Z,46.40
2022-08-14T18:58:26.527Z,46.60
2022-08-14T19:00:53.957Z,47.00
2022-08-14T19:02:59.874Z,46.80
2022-08-14T19:05:11.594Z,46.80
2022-08-14T19:07:19.139Z,46.80
2022-08-14T19:09:57.923Z,47.20
2022-08-14T19:12:04.499Z,47.20
2022-08-14T19:14:14.324Z,47.40
2022-08-14T19:16:26.850Z,47.40
2022-08-14T19:18:38.574Z,47.60
2022-08-14T19:20:49.007Z,47.70
2022-08-14T19:22:59.561Z,48.10
2022-08-14T19:25:04.892Z,47.90
2022-08-14T19:27:23.589Z,48.30
2022-08-14T19:29:38.390Z,48.40
2022-08-14T19:31:55.387Z,48.60
2022-08-14T19:34:02.031Z,48.60
2022-08-14T19:36:28.925Z,48.60
2022-08-14T19:38:57.810Z,49.00
2022-08-14T19:41:13.505Z,49.30
2022-08-14T19:43:55.394Z,49.40
2022-08-14T19:45:55.797Z,49.60
2022-08-14T19:48:00.832Z,49.80
2022-08-14T19:50:24.990Z,50.00
2022-08-14T19:52:37.220Z,50.00
2022-08-14T19:54:45.165Z,50.10
2022-08-14T19:56:49.866Z,50.40
2022-08-14T19:58:57.987Z,50.80
2022-08-14T20:01:01.906Z,50.90
2022-08-14T20:03:18.605Z,51.30
2022-08-14T20:05:45.850Z,51.70
2022-08-14T20:08:05.914Z,52.00
2022-08-14T20:11:08.346Z,52.20
2022-08-14T20:12:58.249Z,52.20
2022-08-14T20:15:09.197Z,52.20
2022-08-14T20:17:19.006Z,52.60
2022-08-14T20:19:28.826Z,53.00
2022-08-14T20:21:34.510Z,53.10
2022-08-14T20:23:39.890Z,53.10
2022-08-14T20:25:56.918Z,53.60
2022-08-14T20:28:29.020Z,53.70
2022-08-14T20:30:36.308Z,54.00
2022-08-14T20:32:46.651Z,54.00
2022-08-14T20:34:55.626Z,54.00
2022-08-14T20:37:09.935Z,54.50
2022-08-14T20:39:16.695Z,54.50
2022-08-14T20:41:20.799Z,54.90
2022-08-14T20:43:35.298Z,55.30
2022-08-14T20:45:43.702Z,55.40
2022-08-14T20:47:51.093Z,55.40
2022-08-14T20:50:16.225Z,55.70
2022-08-14T20:52:29.597Z,55.80
2022-08-14T20:54:50.013Z,56.00
2022-08-14T20:56:54.708Z,56.20
2022-08-14T20:58:58.102Z,56.50
2022-08-14T21:01:14.192Z,57.00
2022-08-14T21:03:30.879Z,56.80
2022-08-14T21:05:46.464Z,57.20
2022-08-14T21:08:08.477Z,57.40
2022-08-14T21:10:33.909Z,57.40
2022-08-14T21:13:25.566Z,57.50
2022-08-14T21:15:11.723Z,57.90
2022-08-14T21:17:21.780Z,58.20
2022-08-14T21:19:28.020Z,58.20
2022-08-14T21:21:40.394Z,58.40
2022-08-14T21:23:54.673Z,58.80
2022-08-14T21:26:00.256Z,59.00
2022-08-14T21:28:29.228Z,59.20
2022-08-14T21:30:46.982Z,59.30
2022-08-14T21:32:58.165Z,59.30
2022-08-14T21:35:06.213Z,59.40
2022-08-14T21:37:11.830Z,59.40
2022-08-14T21:39:15.968Z,59.50
2022-08-14T21:41:42.935Z,59.80
2022-08-14T21:43:43.761Z,59.80
2022-08-14T21:45:53.183Z,60.60
2022-08-14T21:48:01.621Z,60.60
2022-08-14T21:50:56.311Z,60.70
2022-08-14T21:52:51.280Z,60.90
2022-08-14T21:55:09.351Z,61.00
2022-08-14T21:57:17.057Z,61.20
2022-08-14T21:59:24.642Z,61.20
2022-08-14T22:02:01.003Z,61.30
2022-08-14T22:04:34.221Z,61.40
2022-08-14T22:06:38.552Z,61.60
2022-08-14T22:08:45.801Z,61.70
2022-08-14T22:10:51.645Z,61.60
2022-08-14T22:13:00.816Z,61.80
2022-08-14T22:15:07.016Z,61.90
2022-08-14T22:17:17.249Z,62.10
2022-08-14T22:19:23.119Z,62.20
2022-08-14T22:21:53.912Z,62.60
2022-08-14T22:23:57.665Z,62.60
2022-08-14T22:26:01.052Z,62.90
2022-08-14T22:28:10.703Z,63.00
2022-08-14T22:30:18.528Z,63.00
2022-08-14T22:32:26.036Z,63.40
2022-08-14T22:34:48.594Z,63.70
2022-08-14T22:36:52.428Z,64.10
2022-08-14T22:38:58.737Z,64.20
2022-08-14T22:41:25.583Z,64.20
2022-08-14T22:43:27.267Z,64.00
2022-08-14T22:45:37.672Z,64.40
2022-08-14T22:47:42.144Z,64.70
2022-08-14T22:50:30.302Z,64.70
2022-08-14T22:52:32.122Z,64.70
2022-08-14T22:54:51.860Z,64.70
2022-08-14T22:56:57.557Z,65.00
2022-08-14T22:59:04.668Z,65.00
2022-08-14T23:01:22.881Z,65.20
2022-08-14T23:03:28.811Z,65.20
2022-08-14T23:05:52.727Z,65.90
2022-08-14T23:08:58.371Z,66.20
2022-08-14T23:10:32.093Z,67.00
2022-08-14T23:12:47.139Z,66.10
2022-08-14T23:14:59.844Z,65.80
2022-08-14T23:17:04.581Z,65.80
2022-08-14T23:19:15.407Z,65.40
2022-08-14T23:21:24.367Z,65.60
2022-08-14T23:23:28.837Z,65.30
2022-08-14T23:25:58.238Z,65.30
2022-08-14T23:28:03.186Z,65.70
2022-08-14T23:30:11.361Z,65.80
2022-08-14T23:32:34.237Z,66.10
2022-08-14T23:34:47.772Z,66.40
2022-08-14T23:36:57.861Z,66.50
2022-08-14T23:39:10.310Z,66.20
2022-08-14T23:41:16.805Z,66.50
2022-08-14T23:43:20.014Z,66.90
2022-08-14T23:45:36.097Z,67.70
2022-08-14T23:47:51.854Z,68.70
2022-08-14T23:50:03.430Z,69.00
2022-08-14T23:52:50.840Z,68.60
2022-08-14T23:54:47.366Z,68.50
2022-08-14T23:57:02.349Z,68.30
2022-08-14T23:59:07.305Z,68.00
